createdAt,value
2023-05-16T00:01:41.239Z,100169.66
2023-05-16T00:04:08.611Z,100164.13
2023-05-16T00:06:36.098Z,100172.66
2023-05-16T00:09:03.766Z,100168.94
2023-05-16T00:11:31.088Z,100177.72
2023-05-16T00:13:58.821Z,100174.31
2023-05-16T00:16:26.068Z,100183.09
2023-05-16T00:18:53.400Z,100183.09
2023-05-16T00:21:23.570Z,100193.81
2023-05-16T00:23:52.850Z,100193.94
2023-05-16T00:26:20.115Z,100196.59
2023-05-16T00:28:47.326Z,100191.75
2023-05-16T00:31:14.620Z,100189.38
2023-05-16T00:33:45.081Z,100197.75
2023-05-16T00:36:12.672Z,100191.97
2023-05-16T00:38:39.899Z,100193.91
2023-05-16T00:41:07.157Z,100192.53
2023-05-16T00:43:34.481Z,100190.13
2023-05-16T00:46:02.032Z,100186.66
2023-05-16T00:48:29.354Z,100195.66
2023-05-16T00:50:57.055Z,100193.13
2023-05-16T00:53:26.778Z,100199.00
2023-05-16T00:55:56.055Z,100204.28
2023-05-16T00:58:23.334Z,100207.41
2023-05-16T01:00:50.772Z,100209.41
2023-05-16T01:03:18.516Z,100209.03
2023-05-16T01:05:46.127Z,100209.16
2023-05-16T01:08:13.369Z,100213.94
2023-05-16T01:10:45.783Z,100225.19
2023-05-16T01:13:19.417Z,100223.59
2023-05-16T01:16:17.032Z,100236.09
2023-05-16T01:19:09.019Z,100225.47
2023-05-16T01:21:43.562Z,100226.75
2023-05-16T01:24:48.111Z,100231.41
2023-05-16T01:27:16.657Z,100241.72
2023-05-16T01:29:43.851Z,100242.56
2023-05-16T01:32:11.164Z,100255.13
2023-05-16T01:34:39.201Z,100244.91
2023-05-16T01:37:16.941Z,100259.06
2023-05-16T01:40:07.797Z,100259.16
2023-05-16T01:42:37.552Z,100254.66
2023-05-16T01:45:07.825Z,100261.09
2023-05-16T01:47:36.715Z,100256.16
2023-05-16T01:50:10.572Z,100273.16
2023-05-16T01:52:41.977Z,100268.84
2023-05-16T01:55:12.291Z,100282.22
2023-05-16T01:57:40.290Z,100281.63
2023-05-16T02:00:08.731Z,100288.13
2023-05-16T02:02:36.134Z,100283.28
2023-05-16T02:05:03.319Z,100292.22
2023-05-16T02:07:30.673Z,100288.88
2023-05-16T02:09:57.920Z,100288.34
2023-05-16T02:12:25.490Z,100291.19
2023-05-16T02:14:52.598Z,100300.06
2023-05-16T02:17:19.885Z,100302.81
2023-05-16T02:19:47.109Z,100307.75
2023-05-16T02:22:14.463Z,100313.00
2023-05-16T02:24:41.682Z,100316.59
2023-05-16T02:27:08.980Z,100316.38
2023-05-16T02:29:36.202Z,100320.22
2023-05-16T02:32:03.554Z,100326.03
2023-05-16T02:34:30.900Z,100324.63
2023-05-16T02:36:58.096Z,100330.28
2023-05-16T02:39:25.474Z,100344.72
2023-05-16T02:41:52.818Z,100346.03
2023-05-16T02:44:21.220Z,100351.31
2023-05-16T02:46:48.458Z,100341.72
2023-05-16T02:53:43.044Z,100345.69
2023-05-16T02:56:10.809Z,100342.03
2023-05-16T02:58:38.045Z,100349.28
2023-05-16T03:01:05.467Z,100355.91
2023-05-16T03:03:35.264Z,100356.97
2023-05-16T03:06:06.334Z,100363.09
2023-05-16T03:08:34.108Z,100356.97
2023-05-16T03:11:01.527Z,100360.16
2023-05-16T03:13:30.110Z,100365.31
2023-05-16T03:15:57.385Z,100366.38
2023-05-16T03:18:24.594Z,100378.69
2023-05-16T03:20:53.077Z,100383.09
2023-05-16T03:23:21.033Z,100380.47
2023-05-16T03:25:48.472Z,100387.75
2023-05-16T03:28:17.867Z,100379.00
2023-05-16T03:30:45.163Z,100392.91
2023-05-16T03:33:12.448Z,100388.47
2023-05-16T03:35:40.208Z,100387.09
2023-05-16T03:38:07.606Z,100392.53
2023-05-16T03:40:34.958Z,100395.81
2023-05-16T03:43:02.276Z,100400.34
2023-05-16T03:45:30.732Z,100400.66
2023-05-16T03:47:58.180Z,100399.78
2023-05-16T03:50:25.577Z,100394.44
2023-05-16T03:52:53.997Z,100397.91
2023-05-16T03:55:21.570Z,100396.31
2023-05-16T03:57:50.113Z,100404.41
2023-05-16T04:00:17.868Z,100392.16
2023-05-16T04:02:45.484Z,100407.03
2023-05-16T04:05:13.873Z,100415.78
2023-05-16T04:07:41.490Z,100421.78
2023-05-16T04:10:09.804Z,100419.25
2023-05-16T04:12:37.641Z,100422.06
2023-05-16T04:15:06.793Z,100424.88
2023-05-16T04:17:34.618Z,100430.38
2023-05-16T04:20:02.483Z,100423.41
2023-05-16T04:22:29.622Z,100427.47
2023-05-16T04:24:57.403Z,100432.63
2023-05-16T04:27:24.891Z,100448.31
2023-05-16T04:29:52.183Z,100451.13
2023-05-16T04:32:19.870Z,100458.94
2023-05-16T04:34:48.487Z,100452.16
2023-05-16T04:37:15.765Z,100455.63
2023-05-16T04:39:43.450Z,100458.09
2023-05-16T04:42:10.703Z,100475.00
2023-05-16T04:44:37.919Z,100467.28
2023-05-16T04:47:05.665Z,100478.75
2023-05-16T04:49:32.885Z,100479.78
2023-05-16T04:52:00.219Z,100476.28
2023-05-16T04:54:27.545Z,100482.41
2023-05-16T04:56:54.829Z,100485.81
2023-05-16T04:59:22.054Z,100490.22
2023-05-16T05:01:49.294Z,100496.63
2023-05-16T05:04:17.818Z,100501.91
2023-05-16T05:06:45.092Z,100503.56
2023-05-16T05:09:12.569Z,100512.50
2023-05-16T05:11:39.939Z,100519.53
2023-05-16T05:14:07.282Z,100525.38
2023-05-16T05:16:34.908Z,100523.03
2023-05-16T05:19:02.911Z,100528.28
2023-05-16T05:21:30.858Z,100532.22
2023-05-16T05:23:58.171Z,100539.47
2023-05-16T05:26:26.205Z,100539.22
2023-05-16T05:29:04.440Z,100542.00
2023-05-16T05:31:34.664Z,100550.56
2023-05-16T05:34:02.819Z,100544.38
2023-05-16T05:36:31.002Z,100540.53
2023-05-16T05:38:58.253Z,100552.84
2023-05-16T05:41:31.695Z,100551.75
2023-05-16T05:43:58.829Z,100563.06
2023-05-16T05:46:26.267Z,100563.91
2023-05-16T05:48:53.492Z,100570.56
2023-05-16T05:51:20.840Z,100575.47
2023-05-16T05:53:48.036Z,100578.09
2023-05-16T05:56:15.395Z,100581.41
2023-05-16T05:58:42.668Z,100582.41
2023-05-16T06:01:13.005Z,100579.78
2023-05-16T06:03:40.240Z,100593.88
2023-05-16T06:06:07.876Z,100591.19
2023-05-16T06:08:35.169Z,100583.03
2023-05-16T06:11:02.344Z,100596.91
2023-05-16T06:13:29.583Z,100586.38
2023-05-16T06:15:56.756Z,100585.66
2023-05-16T06:18:23.888Z,100589.03
2023-05-16T06:20:52.018Z,100585.19
2023-05-16T06:23:21.161Z,100580.44
2023-05-16T06:25:48.764Z,100586.72
2023-05-16T06:28:15.889Z,100587.31
2023-05-16T06:30:43.170Z,100588.72
2023-05-16T06:33:10.637Z,100590.84
2023-05-16T06:35:37.841Z,100587.50
2023-05-16T06:38:04.981Z,100601.31
2023-05-16T06:40:32.267Z,100593.41
2023-05-16T06:42:59.619Z,100605.56
2023-05-16T06:45:27.115Z,100599.34
2023-05-16T06:47:57.393Z,100613.09
2023-05-16T06:50:24.888Z,100625.88
2023-05-16T06:52:52.251Z,100626.88
2023-05-16T06:55:19.947Z,100633.78
2023-05-16T06:57:47.964Z,100627.94
2023-05-16T07:00:15.949Z,100629.44
2023-05-16T07:02:43.200Z,100636.78
2023-05-16T07:05:10.537Z,100636.03
2023-05-16T07:07:37.871Z,100639.81
2023-05-16T07:10:05.319Z,100650.44
2023-05-16T07:12:32.790Z,100648.56
2023-05-16T07:14:59.961Z,100645.38
2023-05-16T07:17:27.310Z,100646.00
2023-05-16T07:19:54.633Z,100655.69
2023-05-16T07:22:21.940Z,100651.19
2023-05-16T07:24:49.077Z,100653.16
2023-05-16T07:27:16.532Z,100654.78
2023-05-16T07:29:43.721Z,100659.94
2023-05-16T07:32:11.136Z,100665.31
2023-05-16T07:34:38.469Z,100666.91
2023-05-16T07:37:07.662Z,100656.09
2023-05-16T07:39:34.821Z,100666.25
2023-05-16T07:42:02.004Z,100665.28
2023-05-16T07:44:29.330Z,100659.66
2023-05-16T07:46:56.738Z,100654.28
2023-05-16T07:49:24.404Z,100662.84
2023-05-16T07:51:51.608Z,100674.03
2023-05-16T07:54:18.822Z,100680.00
2023-05-16T07:56:46.013Z,100680.25
2023-05-16T07:59:13.314Z,100683.19
2023-05-16T08:01:40.884Z,100682.22
2023-05-16T08:04:08.061Z,100681.03
2023-05-16T08:06:35.417Z,100689.59
2023-05-16T08:09:02.906Z,100682.56
2023-05-16T08:11:30.151Z,100685.63
2023-05-16T08:13:57.415Z,100687.97
2023-05-16T08:16:24.632Z,100705.41
2023-05-16T08:18:52.049Z,100708.88
2023-05-16T08:21:19.275Z,100719.44
2023-05-16T08:23:46.554Z,100723.03
2023-05-16T08:26:13.781Z,100722.47
2023-05-16T08:28:41.151Z,100709.84
2023-05-16T08:31:08.381Z,100728.19
2023-05-16T08:37:54.398Z,100741.28
2023-05-16T08:40:22.624Z,100741.47
2023-05-16T08:42:50.415Z,100736.94
2023-05-16T08:45:17.765Z,100729.16
2023-05-16T08:47:45.686Z,100732.25
2023-05-16T08:50:13.384Z,100726.97
2023-05-16T08:52:44.800Z,100726.91
2023-05-16T08:55:12.927Z,100725.78
2023-05-16T08:57:41.091Z,100719.16
2023-05-16T09:00:12.430Z,100731.78
2023-05-16T09:02:44.518Z,100721.41
2023-05-16T09:05:14.160Z,100714.28
2023-05-16T09:07:45.062Z,100716.06
2023-05-16T09:10:13.159Z,100720.88
2023-05-16T09:12:41.857Z,100720.75
2023-05-16T09:15:10.825Z,100722.19
2023-05-16T09:17:42.343Z,100733.28
2023-05-16T09:20:11.921Z,100737.06
2023-05-16T09:22:39.530Z,100738.28
2023-05-16T09:25:12.600Z,100740.94
2023-05-16T09:27:42.672Z,100733.28
2023-05-16T09:30:10.571Z,100740.44
2023-05-16T09:32:43.658Z,100737.06
2023-05-16T09:35:19.473Z,100733.94
2023-05-16T09:37:54.987Z,100743.09
2023-05-16T09:40:25.385Z,100755.03
2023-05-16T09:43:06.303Z,100750.78
2023-05-16T09:45:34.969Z,100758.28
2023-05-16T09:52:14.871Z,100763.97
2023-05-16T09:54:42.178Z,100771.59
2023-05-16T09:57:10.334Z,100773.28
2023-05-16T09:59:38.919Z,100780.59
2023-05-16T10:02:07.582Z,100774.69
2023-05-16T10:04:35.900Z,100777.41
2023-05-16T10:07:09.624Z,100773.38
2023-05-16T10:09:37.087Z,100778.78
2023-05-16T10:12:06.559Z,100775.28
2023-05-16T10:14:37.718Z,100781.34
2023-05-16T10:17:07.016Z,100785.84
2023-05-16T10:19:37.667Z,100784.03
2023-05-16T10:22:06.706Z,100776.72
2023-05-16T10:24:44.182Z,100784.59
2023-05-16T10:27:11.602Z,100775.09
2023-05-16T10:29:52.999Z,100775.94
2023-05-16T10:32:23.671Z,100779.16
2023-05-16T10:34:51.187Z,100775.97
2023-05-16T10:37:18.588Z,100774.31
2023-05-16T10:39:46.970Z,100782.34
2023-05-16T10:42:18.319Z,100786.13
2023-05-16T10:44:51.653Z,100781.06
2023-05-16T10:47:29.623Z,100788.78
2023-05-16T10:49:56.985Z,100794.38
2023-05-16T10:52:33.806Z,100788.72
2023-05-16T10:55:03.476Z,100794.34
2023-05-16T10:57:33.115Z,100793.25
2023-05-16T11:00:01.949Z,100807.19
2023-05-16T11:02:33.690Z,100807.28
2023-05-16T11:05:02.855Z,100797.53
2023-05-16T11:07:34.781Z,100806.38
2023-05-16T11:10:06.425Z,100805.25
2023-05-16T11:12:50.720Z,100808.13
2023-05-16T11:15:23.585Z,100817.25
2023-05-16T11:18:36.408Z,100817.75
2023-05-16T11:21:04.652Z,100818.91
2023-05-16T11:23:32.078Z,100829.50
2023-05-16T11:26:00.905Z,100820.38
2023-05-16T11:28:28.431Z,100821.63
2023-05-16T11:30:58.319Z,100820.03
2023-05-16T11:33:25.829Z,100815.50
2023-05-16T11:36:14.419Z,100805.34
2023-05-16T11:38:43.783Z,100813.19
2023-05-16T11:41:11.805Z,100811.09
2023-05-16T11:43:44.711Z,100817.34
2023-05-16T11:46:16.397Z,100826.09
2023-05-16T11:48:46.381Z,100811.78
2023-05-16T11:51:18.646Z,100814.63
2023-05-16T11:53:50.246Z,100812.66
2023-05-16T11:56:17.684Z,100811.94
2023-05-16T11:58:45.657Z,100824.13
2023-05-16T12:01:13.040Z,100820.13
2023-05-16T12:03:40.982Z,100820.97
2023-05-16T12:06:08.720Z,100818.69
2023-05-16T12:08:35.967Z,100825.63
2023-05-16T12:11:03.212Z,100825.50
2023-05-16T12:13:30.613Z,100833.13
2023-05-16T12:15:58.666Z,100833.25
2023-05-16T12:18:26.334Z,100831.53
2023-05-16T12:20:53.847Z,100828.88
2023-05-16T12:23:21.152Z,100826.78
2023-05-16T12:25:49.389Z,100840.53
2023-05-16T12:28:16.749Z,100838.50
2023-05-16T12:30:44.995Z,100835.63
2023-05-16T12:33:14.195Z,100847.22
2023-05-16T12:35:43.823Z,100854.03
2023-05-16T12:38:13.804Z,100847.31
2023-05-16T12:40:42.331Z,100847.50
2023-05-16T12:43:17.326Z,100850.97
2023-05-16T12:45:50.877Z,100851.97
2023-05-16T12:48:18.410Z,100857.22
2023-05-16T12:50:48.908Z,100862.69
2023-05-16T12:53:17.769Z,100850.78
2023-05-16T12:55:45.595Z,100842.84
2023-05-16T12:58:13.014Z,100840.00
2023-05-16T13:00:40.365Z,100838.66
2023-05-16T13:03:08.073Z,100828.59
2023-05-16T13:05:38.175Z,100838.63
2023-05-16T13:08:06.108Z,100819.66
2023-05-16T13:10:33.294Z,100822.59
2023-05-16T13:13:04.470Z,100824.25
2023-05-16T13:15:32.035Z,100834.75
2023-05-16T13:17:59.508Z,100825.47
2023-05-16T13:20:26.983Z,100842.06
2023-05-16T13:22:54.157Z,100824.22
2023-05-16T13:25:21.455Z,100813.13
2023-05-16T13:27:49.430Z,100821.28
2023-05-16T13:30:17.705Z,100810.88
2023-05-16T13:32:44.941Z,100811.31
2023-05-16T13:35:12.258Z,100817.31
2023-05-16T13:37:39.645Z,100814.91
2023-05-16T13:40:10.194Z,100823.97
2023-05-16T13:42:38.588Z,100822.25
2023-05-16T13:45:06.881Z,100829.31
2023-05-16T13:47:34.023Z,100832.38
2023-05-16T13:50:07.863Z,100832.25
2023-05-16T13:52:38.421Z,100842.75
2023-05-16T13:55:06.794Z,100835.50
2023-05-16T13:57:34.343Z,100837.66
2023-05-16T14:02:32.078Z,100833.44
2023-05-16T14:04:59.264Z,100829.19
2023-05-16T14:07:26.592Z,100832.38
2023-05-16T14:09:53.794Z,100825.84
2023-05-16T14:12:21.315Z,100834.47
2023-05-16T14:14:48.450Z,100844.38
2023-05-16T14:17:15.750Z,100839.47
2023-05-16T14:19:42.985Z,100842.22
2023-05-16T14:22:10.276Z,100845.47
2023-05-16T14:24:37.598Z,100848.66
2023-05-16T14:27:05.028Z,100849.09
2023-05-16T14:29:32.256Z,100854.03
2023-05-16T14:31:59.473Z,100851.19
2023-05-16T14:34:26.811Z,100842.53
2023-05-16T14:36:54.059Z,100855.09
2023-05-16T14:39:21.444Z,100860.22
2023-05-16T14:41:48.749Z,100863.56
2023-05-16T14:44:16.318Z,100848.81
2023-05-16T14:46:44.692Z,100847.16
2023-05-16T14:49:12.364Z,100850.00
2023-05-16T14:51:39.543Z,100844.41
2023-05-16T14:54:06.790Z,100850.16
2023-05-16T14:56:34.030Z,100838.59
2023-05-16T14:59:01.715Z,100845.03
2023-05-16T15:01:30.063Z,100850.25
2023-05-16T15:03:57.344Z,100836.94
2023-05-16T15:06:27.803Z,100838.84
2023-05-16T15:08:55.597Z,100844.13
2023-05-16T15:11:23.423Z,100833.94
2023-05-16T15:13:50.791Z,100827.81
2023-05-16T15:16:18.577Z,100843.97
2023-05-16T15:18:46.203Z,100834.44
2023-05-16T15:21:13.561Z,100846.06
2023-05-16T15:23:41.609Z,100846.72
2023-05-16T15:26:08.976Z,100849.34
2023-05-16T15:28:36.365Z,100851.53
2023-05-16T15:31:05.084Z,100842.56
2023-05-16T15:33:32.326Z,100846.19
2023-05-16T15:35:59.621Z,100844.53
2023-05-16T15:38:26.854Z,100850.31
2023-05-16T15:41:13.163Z,100848.06
2023-05-16T15:43:42.025Z,100843.19
2023-05-16T15:46:12.592Z,100841.59
2023-05-16T15:48:42.843Z,100850.72
2023-05-16T15:51:11.385Z,100844.84
2023-05-16T15:53:38.827Z,100848.84
2023-05-16T15:56:06.597Z,100850.47
2023-05-16T15:58:33.756Z,100841.88
2023-05-16T16:01:01.231Z,100835.97
2023-05-16T16:03:28.641Z,100842.16
2023-05-16T16:05:55.990Z,100842.09
2023-05-16T16:08:23.292Z,100834.03
2023-05-16T16:10:50.630Z,100847.00
2023-05-16T16:13:17.963Z,100863.19
2023-05-16T16:15:45.336Z,100852.06
2023-05-16T16:18:13.919Z,100856.44
2023-05-16T16:20:41.183Z,100855.09
2023-05-16T16:23:08.437Z,100854.81
2023-05-16T16:25:35.677Z,100848.19
2023-05-16T16:28:02.971Z,100851.59
2023-05-16T16:30:30.340Z,100848.78
2023-05-16T16:32:57.600Z,100844.75
2023-05-16T16:35:26.202Z,100846.59
2023-05-16T16:38:05.564Z,100847.50
2023-05-16T16:40:34.049Z,100852.88
2023-05-16T16:43:01.856Z,100837.91
2023-05-16T16:45:29.901Z,100838.16
2023-05-16T16:47:58.298Z,100836.41
2023-05-16T16:50:25.848Z,100830.38
2023-05-16T16:52:53.927Z,100820.53
2023-05-16T16:55:21.353Z,100829.56
2023-05-16T16:57:49.100Z,100824.47
2023-05-16T17:00:17.110Z,100829.69
2023-05-16T17:02:44.472Z,100836.94
2023-05-16T17:05:12.165Z,100834.38
2023-05-16T17:07:39.528Z,100837.78
2023-05-16T17:10:07.860Z,100838.31
2023-05-16T17:12:35.253Z,100829.88
2023-05-16T17:15:02.573Z,100832.94
2023-05-16T17:17:29.864Z,100834.47
2023-05-16T17:19:57.108Z,100829.91
2023-05-16T17:22:24.396Z,100845.50
2023-05-16T17:24:51.704Z,100839.38
2023-05-16T17:27:19.213Z,100841.66
2023-05-16T17:29:46.619Z,100852.53
2023-05-16T17:32:13.776Z,100860.94
2023-05-16T17:34:41.033Z,100872.53
2023-05-16T17:37:10.491Z,100871.97
2023-05-16T17:39:38.842Z,100881.00
2023-05-16T17:42:06.673Z,100881.06
2023-05-16T17:44:34.122Z,100889.63
2023-05-16T17:47:01.671Z,100886.91
2023-05-16T17:49:28.916Z,100887.91
2023-05-16T17:52:00.144Z,100889.09
2023-05-16T17:54:31.148Z,100881.16
2023-05-16T17:56:58.648Z,100886.69
2023-05-16T17:59:30.129Z,100895.91
2023-05-16T18:02:00.312Z,100901.56
2023-05-16T18:04:27.620Z,100909.75
2023-05-16T18:06:56.191Z,100907.84
2023-05-16T18:09:24.320Z,100917.63
2023-05-16T18:11:51.974Z,100917.69
2023-05-16T18:14:19.334Z,100929.41
2023-05-16T18:16:47.105Z,100935.25
2023-05-16T18:19:14.582Z,100936.94
2023-05-16T18:21:44.300Z,100940.34
2023-05-16T18:24:13.066Z,100945.50
2023-05-16T18:26:40.611Z,100944.13
2023-05-16T18:29:10.625Z,100949.66
2023-05-16T18:31:41.122Z,100953.75
2023-05-16T18:34:11.933Z,100954.47
2023-05-16T18:36:39.224Z,100956.88
2023-05-16T18:39:07.176Z,100960.25
2023-05-16T18:41:34.369Z,100960.94
2023-05-16T18:44:01.791Z,100961.47
2023-05-16T18:46:29.318Z,100954.97
2023-05-16T18:48:57.888Z,100959.09
2023-05-16T18:51:26.438Z,100969.66
2023-05-16T18:53:54.682Z,100976.34
2023-05-16T18:56:22.525Z,100968.25
2023-05-16T18:58:49.896Z,100981.84
2023-05-16T19:01:17.180Z,100992.72
2023-05-16T19:03:44.591Z,100993.72
2023-05-16T19:06:11.970Z,100999.50
2023-05-16T19:08:47.689Z,101005.94
2023-05-16T19:11:17.420Z,101005.81
2023-05-16T19:13:45.531Z,101016.94
2023-05-16T19:16:13.056Z,101019.00
2023-05-16T19:18:40.537Z,101024.84
2023-05-16T19:21:08.688Z,101029.44
2023-05-16T19:23:41.002Z,101034.22
2023-05-16T19:26:09.173Z,101032.78
2023-05-16T19:28:37.652Z,101039.41
2023-05-16T19:31:05.024Z,101039.81
2023-05-16T19:33:32.451Z,101035.84
2023-05-16T19:36:05.922Z,101042.81
2023-05-16T19:38:33.165Z,101039.41
2023-05-16T19:41:03.247Z,101052.59
2023-05-16T19:43:30.660Z,101053.78
2023-05-16T19:45:58.848Z,101054.22
2023-05-16T19:48:28.927Z,101064.91
2023-05-16T19:50:56.537Z,101064.19
2023-05-16T19:53:24.311Z,101061.91
2023-05-16T19:55:51.559Z,101071.75
2023-05-16T19:58:19.314Z,101073.88
2023-05-16T20:00:47.069Z,101061.97
2023-05-16T20:03:14.692Z,101065.63
2023-05-16T20:05:42.026Z,101065.78
2023-05-16T20:08:09.642Z,101055.59
2023-05-16T20:10:36.834Z,101065.63
2023-05-16T20:13:04.313Z,101062.47
2023-05-16T20:15:34.970Z,101074.28
2023-05-16T20:18:02.268Z,101075.28
2023-05-16T20:20:30.078Z,101078.09
2023-05-16T20:22:57.276Z,101084.44
2023-05-16T20:25:24.589Z,101087.28
2023-05-16T20:27:52.007Z,101081.44
2023-05-16T20:30:19.208Z,101083.56
2023-05-16T20:32:46.880Z,101094.50
2023-05-16T20:35:14.815Z,101083.50
2023-05-16T20:37:42.896Z,101094.22
2023-05-16T20:40:10.399Z,101087.56
2023-05-16T20:42:38.461Z,101091.28
2023-05-16T20:45:06.402Z,101095.09
2023-05-16T20:47:34.686Z,101083.94
2023-05-16T20:50:02.033Z,101091.28
2023-05-16T20:52:29.703Z,101097.63
2023-05-16T20:54:58.340Z,101094.38
2023-05-16T20:57:28.593Z,101095.47
2023-05-16T20:59:55.833Z,101092.91
2023-05-16T21:02:23.007Z,101096.59
2023-05-16T21:04:52.990Z,101088.84
2023-05-16T21:07:20.221Z,101093.50
2023-05-16T21:09:48.192Z,101094.66
2023-05-16T21:12:15.579Z,101103.53
2023-05-16T21:14:44.121Z,101105.41
2023-05-16T21:17:11.366Z,101108.34
2023-05-16T21:19:38.863Z,101100.50
2023-05-16T21:22:06.273Z,101107.78
2023-05-16T21:24:57.206Z,101108.00
2023-05-16T21:27:24.708Z,101117.78
2023-05-16T21:29:51.879Z,101118.88
2023-05-16T21:32:19.123Z,101109.28
2023-05-16T21:34:46.292Z,101114.84
2023-05-16T21:37:13.587Z,101118.22
2023-05-16T21:39:40.936Z,101116.53
2023-05-16T21:42:08.210Z,101110.72
2023-05-16T21:44:35.493Z,101110.88
2023-05-16T21:47:02.692Z,101120.66
2023-05-16T21:49:29.917Z,101114.78
2023-05-16T21:51:57.252Z,101116.63
2023-05-16T21:54:24.564Z,101119.53
2023-05-16T21:56:51.814Z,101119.69
2023-05-16T21:59:18.984Z,101118.97
2023-05-16T22:01:46.483Z,101118.19
2023-05-16T22:04:13.965Z,101119.19
2023-05-16T22:06:41.330Z,101117.13
2023-05-16T22:09:08.636Z,101118.97
2023-05-16T22:11:35.833Z,101126.06
2023-05-16T22:14:03.101Z,101120.75
2023-05-16T22:16:30.527Z,101118.38
2023-05-16T22:18:57.860Z,101132.53
2023-05-16T22:21:25.194Z,101128.97
2023-05-16T22:23:52.461Z,101131.72
2023-05-16T22:26:19.658Z,101130.13
2023-05-16T22:28:46.836Z,101122.38
2023-05-16T22:31:14.338Z,101123.09
2023-05-16T22:33:41.739Z,101125.00
2023-05-16T22:36:09.145Z,101127.81
2023-05-16T22:38:36.459Z,101126.84
2023-05-16T22:41:04.042Z,101125.28
2023-05-16T22:43:31.234Z,101127.91
2023-05-16T22:45:59.045Z,101128.69
2023-05-16T22:48:27.640Z,101136.69
2023-05-16T22:50:54.842Z,101128.16
2023-05-16T22:53:22.101Z,101129.09
2023-05-16T22:55:49.409Z,101139.59
2023-05-16T22:58:16.605Z,101142.13
2023-05-16T23:00:43.853Z,101141.38
2023-05-16T23:03:11.226Z,101144.84
2023-05-16T23:05:38.539Z,101137.09
2023-05-16T23:08:06.481Z,101138.88
2023-05-16T23:10:33.766Z,101136.31
2023-05-16T23:13:01.451Z,101140.84
2023-05-16T23:15:28.933Z,101142.50
2023-05-16T23:17:56.296Z,101145.38
2023-05-16T23:20:23.780Z,101141.13
2023-05-16T23:22:51.058Z,101149.97
2023-05-16T23:25:18.373Z,101147.44
2023-05-16T23:27:45.639Z,101142.38
2023-05-16T23:30:13.087Z,101156.34
2023-05-16T23:32:40.627Z,101152.06
2023-05-16T23:35:08.070Z,101153.84
2023-05-16T23:37:35.274Z,101154.97
2023-05-16T23:40:02.686Z,101153.31
2023-05-16T23:42:37.038Z,101149.06
2023-05-16T23:45:07.992Z,101158.00
2023-05-16T23:47:35.293Z,101151.06
2023-05-16T23:50:03.883Z,101151.16
2023-05-16T23:52:31.254Z,101155.56
2023-05-16T23:54:58.451Z,101154.84
2023-05-16T23:57:25.703Z,101163.53
2023-05-16T23:59:52.978Z,101159.16
